sensor_id;sensor_type;location;lat;lon;timestamp;P1;durP1;ratioP1;P2;durP2;ratioP2
19495;SDS011;9888;48.606;9.630;2023-05-07T00:00:54;10.83;;;5.37;;
19495;SDS011;9888;48.606;9.630;2023-05-07T00:03:21;12.20;;;5.93;;
19495;SDS011;9888;48.606;9.630;2023-05-07T00:05:49;12.03;;;5.67;;
19495;SDS011;9888;48.606;9.630;2023-05-07T00:08:17;9.93;;;4.90;;
19495;SDS011;9888;48.606;9.630;2023-05-07T00:10:44;10.07;;;5.30;;
19495;SDS011;9888;48.606;9.630;2023-05-07T00:13:12;9.80;;;5.37;;
19495;SDS011;9888;48.606;9.630;2023-05-07T00:15:39;10.37;;;5.47;;
19495;SDS011;9888;48.606;9.630;2023-05-07T00:18:06;11.23;;;4.97;;
19495;SDS011;9888;48.606;9.630;2023-05-07T00:20:33;10.93;;;5.53;;
19495;SDS011;9888;48.606;9.630;2023-05-07T00:23:00;10.30;;;5.40;;
19495;SDS011;9888;48.606;9.630;2023-05-07T00:25:27;10.23;;;4.90;;
19495;SDS011;9888;48.606;9.630;2023-05-07T00:27:54;11.10;;;5.60;;
19495;SDS011;9888;48.606;9.630;2023-05-07T00:30:20;10.70;;;4.60;;
19495;SDS011;9888;48.606;9.630;2023-05-07T00:32:47;11.73;;;4.53;;
19495;SDS011;9888;48.606;9.630;2023-05-07T00:35:14;10.10;;;4.93;;
19495;SDS011;9888;48.606;9.630;2023-05-07T00:37:41;11.53;;;5.30;;
19495;SDS011;9888;48.606;9.630;2023-05-07T00:40:08;11.40;;;4.50;;
19495;SDS011;9888;48.606;9.630;2023-05-07T00:42:35;9.73;;;5.03;;
19495;SDS011;9888;48.606;9.630;2023-05-07T00:45:02;11.00;;;4.63;;
19495;SDS011;9888;48.606;9.630;2023-05-07T00:47:29;9.63;;;4.80;;
19495;SDS011;9888;48.606;9.630;2023-05-07T00:49:56;9.73;;;4.90;;
19495;SDS011;9888;48.606;9.630;2023-05-07T00:52:24;8.63;;;4.53;;
19495;SDS011;9888;48.606;9.630;2023-05-07T00:54:52;10.10;;;4.47;;
19495;SDS011;9888;48.606;9.630;2023-05-07T00:57:19;12.10;;;5.20;;
19495;SDS011;9888;48.606;9.630;2023-05-07T00:59:48;9.10;;;4.50;;
19495;SDS011;9888;48.606;9.630;2023-05-07T01:02:16;17.53;;;4.77;;
19495;SDS011;9888;48.606;9.630;2023-05-07T01:04:43;12.60;;;4.93;;
19495;SDS011;9888;48.606;9.630;2023-05-07T01:07:11;9.50;;;4.93;;
19495;SDS011;9888;48.606;9.630;2023-05-07T01:09:38;11.33;;;4.80;;
19495;SDS011;9888;48.606;9.630;2023-05-07T01:12:06;11.53;;;5.23;;
19495;SDS011;9888;48.606;9.630;2023-05-07T01:14:34;9.80;;;4.60;;
19495;SDS011;9888;48.606;9.630;2023-05-07T01:17:03;10.50;;;4.90;;
19495;SDS011;9888;48.606;9.630;2023-05-07T01:19:30;11.50;;;4.63;;
19495;SDS011;9888;48.606;9.630;2023-05-07T01:22:01;10.37;;;4.90;;
19495;SDS011;9888;48.606;9.630;2023-05-07T01:24:37;9.30;;;4.33;;
19495;SDS011;9888;48.606;9.630;2023-05-07T01:27:04;13.60;;;5.00;;
19495;SDS011;9888;48.606;9.630;2023-05-07T01:29:31;11.17;;;4.87;;
19495;SDS011;9888;48.606;9.630;2023-05-07T01:31:58;9.80;;;5.07;;
19495;SDS011;9888;48.606;9.630;2023-05-07T01:34:27;9.40;;;4.90;;
19495;SDS011;9888;48.606;9.630;2023-05-07T01:36:57;10.23;;;5.20;;
19495;SDS011;9888;48.606;9.630;2023-05-07T01:39:25;9.43;;;4.87;;
19495;SDS011;9888;48.606;9.630;2023-05-07T01:41:56;9.90;;;4.97;;
19495;SDS011;9888;48.606;9.630;2023-05-07T01:44:25;9.43;;;4.70;;
19495;SDS011;9888;48.606;9.630;2023-05-07T01:46:52;9.83;;;4.77;;
19495;SDS011;9888;48.606;9.630;2023-05-07T01:49:21;8.50;;;4.53;;
19495;SDS011;9888;48.606;9.630;2023-05-07T01:51:48;10.03;;;4.37;;
19495;SDS011;9888;48.606;9.630;2023-05-07T01:54:15;14.30;;;5.63;;
19495;SDS011;9888;48.606;9.630;2023-05-07T01:56:42;10.43;;;4.20;;
19495;SDS011;9888;48.606;9.630;2023-05-07T01:59:09;9.40;;;4.57;;
19495;SDS011;9888;48.606;9.630;2023-05-07T02:01:36;10.00;;;4.60;;
19495;SDS011;9888;48.606;9.630;2023-05-07T02:04:03;9.17;;;4.27;;
19495;SDS011;9888;48.606;9.630;2023-05-07T02:06:30;12.33;;;4.80;;
19495;SDS011;9888;48.606;9.630;2023-05-07T02:08:58;10.17;;;4.60;;
19495;SDS011;9888;48.606;9.630;2023-05-07T02:11:25;10.20;;;4.93;;
19495;SDS011;9888;48.606;9.630;2023-05-07T02:13:52;9.63;;;4.40;;
19495;SDS011;9888;48.606;9.630;2023-05-07T02:16:19;11.07;;;4.83;;
19495;SDS011;9888;48.606;9.630;2023-05-07T02:18:47;10.90;;;4.83;;
19495;SDS011;9888;48.606;9.630;2023-05-07T02:21:13;9.97;;;4.70;;
19495;SDS011;9888;48.606;9.630;2023-05-07T02:23:40;10.23;;;5.37;;
19495;SDS011;9888;48.606;9.630;2023-05-07T02:26:07;11.03;;;4.93;;
19495;SDS011;9888;48.606;9.630;2023-05-07T02:28:34;9.37;;;4.60;;
19495;SDS011;9888;48.606;9.630;2023-05-07T02:31:03;10.63;;;4.70;;
19495;SDS011;9888;48.606;9.630;2023-05-07T02:33:30;10.17;;;4.50;;
19495;SDS011;9888;48.606;9.630;2023-05-07T02:35:56;9.30;;;4.47;;
19495;SDS011;9888;48.606;9.630;2023-05-07T02:38:31;13.27;;;4.87;;
19495;SDS011;9888;48.606;9.630;2023-05-07T02:41:04;11.93;;;4.90;;
19495;SDS011;9888;48.606;9.630;2023-05-07T02:43:30;8.67;;;4.37;;
19495;SDS011;9888;48.606;9.630;2023-05-07T02:46:01;9.30;;;4.70;;
19495;SDS011;9888;48.606;9.630;2023-05-07T02:48:28;10.43;;;5.00;;
19495;SDS011;9888;48.606;9.630;2023-05-07T02:50:55;9.40;;;4.63;;
19495;SDS011;9888;48.606;9.630;2023-05-07T02:53:22;10.73;;;4.73;;
19495;SDS011;9888;48.606;9.630;2023-05-07T02:55:54;10.73;;;4.60;;
19495;SDS011;9888;48.606;9.630;2023-05-07T02:58:22;9.00;;;4.40;;
19495;SDS011;9888;48.606;9.630;2023-05-07T03:00:49;10.07;;;4.73;;
19495;SDS011;9888;48.606;9.630;2023-05-07T03:03:17;10.13;;;4.50;;
19495;SDS011;9888;48.606;9.630;2023-05-07T03:05:44;10.10;;;4.83;;
19495;SDS011;9888;48.606;9.630;2023-05-07T03:08:11;9.33;;;4.70;;
19495;SDS011;9888;48.606;9.630;2023-05-07T03:10:37;15.00;;;5.23;;
19495;SDS011;9888;48.606;9.630;2023-05-07T03:13:09;9.23;;;4.40;;
19495;SDS011;9888;48.606;9.630;2023-05-07T03:15:36;9.40;;;4.40;;
19495;SDS011;9888;48.606;9.630;2023-05-07T03:18:03;11.77;;;5.00;;
19495;SDS011;9888;48.606;9.630;2023-05-07T03:20:30;9.90;;;5.10;;
19495;SDS011;9888;48.606;9.630;2023-05-07T03:22:58;11.83;;;4.87;;
19495;SDS011;9888;48.606;9.630;2023-05-07T03:25:27;10.47;;;4.87;;
19495;SDS011;9888;48.606;9.630;2023-05-07T03:27:58;14.57;;;4.37;;
19495;SDS011;9888;48.606;9.630;2023-05-07T03:30:25;10.87;;;4.30;;
19495;SDS011;9888;48.606;9.630;2023-05-07T03:32:52;12.13;;;5.00;;
19495;SDS011;9888;48.606;9.630;2023-05-07T03:35:19;9.33;;;4.63;;
19495;SDS011;9888;48.606;9.630;2023-05-07T03:37:46;11.40;;;4.70;;
19495;SDS011;9888;48.606;9.630;2023-05-07T03:40:13;11.00;;;5.27;;
19495;SDS011;9888;48.606;9.630;2023-05-07T03:42:40;10.07;;;4.77;;
19495;SDS011;9888;48.606;9.630;2023-05-07T03:45:07;12.33;;;5.23;;
19495;SDS011;9888;48.606;9.630;2023-05-07T03:47:41;13.03;;;5.40;;
19495;SDS011;9888;48.606;9.630;2023-05-07T03:50:09;14.77;;;5.60;;
19495;SDS011;9888;48.606;9.630;2023-05-07T03:52:36;10.70;;;4.60;;
19495;SDS011;9888;48.606;9.630;2023-05-07T03:55:03;18.70;;;4.90;;
19495;SDS011;9888;48.606;9.630;2023-05-07T03:57:31;10.60;;;5.10;;
19495;SDS011;9888;48.606;9.630;2023-05-07T03:59:58;11.50;;;4.90;;
19495;SDS011;9888;48.606;9.630;2023-05-07T04:02:25;11.90;;;4.90;;
19495;SDS011;9888;48.606;9.630;2023-05-07T04:04:53;12.40;;;5.53;;
19495;SDS011;9888;48.606;9.630;2023-05-07T04:07:20;10.37;;;4.73;;
19495;SDS011;9888;48.606;9.630;2023-05-07T04:09:48;13.77;;;5.70;;
19495;SDS011;9888;48.606;9.630;2023-05-07T04:12:15;11.23;;;5.33;;
19495;SDS011;9888;48.606;9.630;2023-05-07T04:14:42;11.03;;;5.63;;
19495;SDS011;9888;48.606;9.630;2023-05-07T04:17:12;10.97;;;5.30;;
19495;SDS011;9888;48.606;9.630;2023-05-07T04:19:39;11.97;;;5.47;;
19495;SDS011;9888;48.606;9.630;2023-05-07T04:22:10;10.63;;;4.87;;
19495;SDS011;9888;48.606;9.630;2023-05-07T04:24:38;10.50;;;5.03;;
19495;SDS011;9888;48.606;9.630;2023-05-07T04:27:07;12.20;;;5.10;;
19495;SDS011;9888;48.606;9.630;2023-05-07T04:29:35;13.63;;;5.23;;
19495;SDS011;9888;48.606;9.630;2023-05-07T04:32:03;11.67;;;5.20;;
19495;SDS011;9888;48.606;9.630;2023-05-07T04:34:31;9.87;;;5.20;;
19495;SDS011;9888;48.606;9.630;2023-05-07T04:36:58;15.50;;;5.70;;
19495;SDS011;9888;48.606;9.630;2023-05-07T04:39:27;11.43;;;5.40;;
19495;SDS011;9888;48.606;9.630;2023-05-07T04:41:58;11.70;;;5.00;;
19495;SDS011;9888;48.606;9.630;2023-05-07T04:44:26;14.43;;;5.73;;
19495;SDS011;9888;48.606;9.630;2023-05-07T04:46:56;13.33;;;5.60;;
19495;SDS011;9888;48.606;9.630;2023-05-07T04:49:24;11.57;;;5.67;;
19495;SDS011;9888;48.606;9.630;2023-05-07T04:51:52;11.77;;;5.37;;
19495;SDS011;9888;48.606;9.630;2023-05-07T04:54:20;12.20;;;6.00;;
19495;SDS011;9888;48.606;9.630;2023-05-07T04:56:46;13.93;;;6.20;;
19495;SDS011;9888;48.606;9.630;2023-05-07T04:59:13;9.90;;;5.90;;
19495;SDS011;9888;48.606;9.630;2023-05-07T05:01:40;16.30;;;6.00;;
19495;SDS011;9888;48.606;9.630;2023-05-07T05:04:08;11.37;;;6.60;;
19495;SDS011;9888;48.606;9.630;2023-05-07T05:06:35;16.57;;;6.40;;
19495;SDS011;9888;48.606;9.630;2023-05-07T05:09:04;12.70;;;6.20;;
19495;SDS011;9888;48.606;9.630;2023-05-07T05:11:31;11.07;;;6.13;;
19495;SDS011;9888;48.606;9.630;2023-05-07T05:13:59;12.10;;;6.10;;
19495;SDS011;9888;48.606;9.630;2023-05-07T05:16:26;11.10;;;6.23;;
19495;SDS011;9888;48.606;9.630;2023-05-07T05:18:54;12.70;;;6.63;;
19495;SDS011;9888;48.606;9.630;2023-05-07T05:21:22;12.60;;;6.50;;
19495;SDS011;9888;48.606;9.630;2023-05-07T05:23:48;12.30;;;6.80;;
19495;SDS011;9888;48.606;9.630;2023-05-07T05:26:15;14.40;;;6.70;;
19495;SDS011;9888;48.606;9.630;2023-05-07T05:28:43;13.80;;;6.90;;
19495;SDS011;9888;48.606;9.630;2023-05-07T05:31:11;15.13;;;7.90;;
19495;SDS011;9888;48.606;9.630;2023-05-07T05:33:40;14.50;;;7.20;;
19495;SDS011;9888;48.606;9.630;2023-05-07T05:36:10;15.40;;;8.30;;
19495;SDS011;9888;48.606;9.630;2023-05-07T05:38:39;12.90;;;7.57;;
19495;SDS011;9888;48.606;9.630;2023-05-07T05:41:06;13.43;;;7.87;;
19495;SDS011;9888;48.606;9.630;2023-05-07T05:43:33;16.00;;;8.33;;
19495;SDS011;9888;48.606;9.630;2023-05-07T05:46:00;15.00;;;9.00;;
19495;SDS011;9888;48.606;9.630;2023-05-07T05:48:30;15.60;;;8.57;;
19495;SDS011;9888;48.606;9.630;2023-05-07T05:50:57;16.03;;;8.30;;
19495;SDS011;9888;48.606;9.630;2023-05-07T05:53:25;15.17;;;9.00;;
19495;SDS011;9888;48.606;9.630;2023-05-07T05:55:53;13.50;;;7.97;;
19495;SDS011;9888;48.606;9.630;2023-05-07T05:58:22;43.60;;;11.13;;
19495;SDS011;9888;48.606;9.630;2023-05-07T06:00:53;94.97;;;16.10;;
19495;SDS011;9888;48.606;9.630;2023-05-07T06:03:21;21.90;;;9.03;;
19495;SDS011;9888;48.606;9.630;2023-05-07T06:05:48;22.57;;;8.13;;
19495;SDS011;9888;48.606;9.630;2023-05-07T06:08:16;20.80;;;10.03;;
19495;SDS011;9888;48.606;9.630;2023-05-07T06:10:44;14.93;;;7.83;;
19495;SDS011;9888;48.606;9.630;2023-05-07T06:13:12;16.20;;;8.60;;
19495;SDS011;9888;48.606;9.630;2023-05-07T06:15:39;14.97;;;9.80;;
19495;SDS011;9888;48.606;9.630;2023-05-07T06:18:11;15.83;;;8.23;;
19495;SDS011;9888;48.606;9.630;2023-05-07T06:20:38;19.10;;;8.10;;
19495;SDS011;9888;48.606;9.630;2023-05-07T06:23:05;12.77;;;7.57;;
19495;SDS011;9888;48.606;9.630;2023-05-07T06:25:32;14.77;;;7.20;;
19495;SDS011;9888;48.606;9.630;2023-05-07T06:28:00;13.67;;;7.10;;
19495;SDS011;9888;48.606;9.630;2023-05-07T06:30:28;15.07;;;8.00;;
19495;SDS011;9888;48.606;9.630;2023-05-07T06:32:55;13.00;;;7.07;;
19495;SDS011;9888;48.606;9.630;2023-05-07T06:35:22;16.30;;;7.43;;
19495;SDS011;9888;48.606;9.630;2023-05-07T06:37:48;12.57;;;7.57;;
19495;SDS011;9888;48.606;9.630;2023-05-07T06:40:15;16.93;;;7.47;;
19495;SDS011;9888;48.606;9.630;2023-05-07T06:42:43;13.53;;;7.63;;
19495;SDS011;9888;48.606;9.630;2023-05-07T06:45:10;17.80;;;7.80;;
19495;SDS011;9888;48.606;9.630;2023-05-07T06:47:37;16.73;;;7.60;;
19495;SDS011;9888;48.606;9.630;2023-05-07T06:50:04;13.07;;;7.40;;
19495;SDS011;9888;48.606;9.630;2023-05-07T06:52:32;13.93;;;7.43;;
19495;SDS011;9888;48.606;9.630;2023-05-07T06:55:01;13.43;;;7.67;;
19495;SDS011;9888;48.606;9.630;2023-05-07T06:57:28;14.17;;;8.20;;
19495;SDS011;9888;48.606;9.630;2023-05-07T06:59:55;13.70;;;7.97;;
19495;SDS011;9888;48.606;9.630;2023-05-07T07:02:22;14.80;;;7.20;;
19495;SDS011;9888;48.606;9.630;2023-05-07T07:04:50;13.63;;;8.00;;
19495;SDS011;9888;48.606;9.630;2023-05-07T07:07:17;13.47;;;8.13;;
19495;SDS011;9888;48.606;9.630;2023-05-07T07:09:44;16.57;;;8.40;;
19495;SDS011;9888;48.606;9.630;2023-05-07T07:12:13;13.13;;;8.37;;
19495;SDS011;9888;48.606;9.630;2023-05-07T07:14:42;14.47;;;8.83;;
19495;SDS011;9888;48.606;9.630;2023-05-07T07:17:11;15.10;;;8.50;;
19495;SDS011;9888;48.606;9.630;2023-05-07T07:19:39;15.73;;;8.67;;
19495;SDS011;9888;48.606;9.630;2023-05-07T07:22:06;13.00;;;8.03;;
19495;SDS011;9888;48.606;9.630;2023-05-07T07:24:34;14.30;;;8.60;;
19495;SDS011;9888;48.606;9.630;2023-05-07T07:27:01;14.77;;;8.10;;
19495;SDS011;9888;48.606;9.630;2023-05-07T07:29:31;14.17;;;8.27;;
19495;SDS011;9888;48.606;9.630;2023-05-07T07:31:58;17.60;;;8.50;;
19495;SDS011;9888;48.606;9.630;2023-05-07T07:34:33;17.30;;;8.43;;
19495;SDS011;9888;48.606;9.630;2023-05-07T07:37:01;14.17;;;8.60;;
19495;SDS011;9888;48.606;9.630;2023-05-07T07:39:32;13.27;;;7.80;;
19495;SDS011;9888;48.606;9.630;2023-05-07T07:41:59;13.77;;;8.23;;
19495;SDS011;9888;48.606;9.630;2023-05-07T07:44:27;14.03;;;8.20;;
19495;SDS011;9888;48.606;9.630;2023-05-07T07:46:54;12.93;;;7.97;;
19495;SDS011;9888;48.606;9.630;2023-05-07T07:49:21;14.17;;;8.30;;
19495;SDS011;9888;48.606;9.630;2023-05-07T07:51:50;14.10;;;8.23;;
19495;SDS011;9888;48.606;9.630;2023-05-07T07:54:17;13.33;;;8.27;;
19495;SDS011;9888;48.606;9.630;2023-05-07T07:56:44;14.10;;;8.40;;
19495;SDS011;9888;48.606;9.630;2023-05-07T07:59:11;12.20;;;7.37;;
19495;SDS011;9888;48.606;9.630;2023-05-07T08:01:40;11.93;;;7.47;;
19495;SDS011;9888;48.606;9.630;2023-05-07T08:04:07;13.23;;;7.47;;
19495;SDS011;9888;48.606;9.630;2023-05-07T08:06:34;17.47;;;7.43;;
19495;SDS011;9888;48.606;9.630;2023-05-07T08:09:01;11.80;;;6.70;;
19495;SDS011;9888;48.606;9.630;2023-05-07T08:11:29;11.37;;;6.43;;
19495;SDS011;9888;48.606;9.630;2023-05-07T08:13:56;10.77;;;6.87;;
19495;SDS011;9888;48.606;9.630;2023-05-07T08:16:26;13.30;;;7.20;;
19495;SDS011;9888;48.606;9.630;2023-05-07T08:18:53;11.67;;;6.50;;
19495;SDS011;9888;48.606;9.630;2023-05-07T08:21:20;12.20;;;6.03;;
19495;SDS011;9888;48.606;9.630;2023-05-07T08:23:48;10.37;;;6.27;;
19495;SDS011;9888;48.606;9.630;2023-05-07T08:26:15;13.10;;;5.37;;
19495;SDS011;9888;48.606;9.630;2023-05-07T08:28:43;10.97;;;6.17;;
19495;SDS011;9888;48.606;9.630;2023-05-07T08:31:10;11.50;;;5.50;;
19495;SDS011;9888;48.606;9.630;2023-05-07T08:33:38;11.40;;;5.83;;
19495;SDS011;9888;48.606;9.630;2023-05-07T08:36:08;10.30;;;5.60;;
19495;SDS011;9888;48.606;9.630;2023-05-07T08:38:37;11.03;;;5.47;;
19495;SDS011;9888;48.606;9.630;2023-05-07T08:41:08;8.97;;;5.10;;
19495;SDS011;9888;48.606;9.630;2023-05-07T08:43:37;10.90;;;5.20;;
19495;SDS011;9888;48.606;9.630;2023-05-07T08:46:08;9.47;;;5.03;;
19495;SDS011;9888;48.606;9.630;2023-05-07T08:48:36;11.30;;;4.83;;
19495;SDS011;9888;48.606;9.630;2023-05-07T08:51:03;9.60;;;5.07;;
19495;SDS011;9888;48.606;9.630;2023-05-07T08:53:31;9.60;;;4.67;;
19495;SDS011;9888;48.606;9.630;2023-05-07T08:56:01;10.03;;;4.67;;
19495;SDS011;9888;48.606;9.630;2023-05-07T08:58:29;9.07;;;4.97;;
19495;SDS011;9888;48.606;9.630;2023-05-07T09:00:57;8.27;;;4.40;;
19495;SDS011;9888;48.606;9.630;2023-05-07T09:03:25;10.17;;;4.80;;
19495;SDS011;9888;48.606;9.630;2023-05-07T09:05:52;9.90;;;4.67;;
19495;SDS011;9888;48.606;9.630;2023-05-07T09:11:21;9.43;;;4.00;;
19495;SDS011;9888;48.606;9.630;2023-05-07T09:13:56;9.60;;;4.60;;
19495;SDS011;9888;48.606;9.630;2023-05-07T09:16:27;8.07;;;3.93;;
19495;SDS011;9888;48.606;9.630;2023-05-07T09:18:59;11.67;;;4.10;;
19495;SDS011;9888;48.606;9.630;2023-05-07T09:21:27;9.90;;;4.57;;
19495;SDS011;9888;48.606;9.630;2023-05-07T09:23:54;9.70;;;4.57;;
19495;SDS011;9888;48.606;9.630;2023-05-07T09:26:23;9.90;;;5.20;;
19495;SDS011;9888;48.606;9.630;2023-05-07T09:28:52;10.70;;;4.50;;
19495;SDS011;9888;48.606;9.630;2023-05-07T09:31:20;10.03;;;4.03;;
19495;SDS011;9888;48.606;9.630;2023-05-07T09:33:48;11.53;;;4.50;;
19495;SDS011;9888;48.606;9.630;2023-05-07T09:36:18;8.47;;;4.60;;
19495;SDS011;9888;48.606;9.630;2023-05-07T09:38:48;8.90;;;4.63;;
19495;SDS011;9888;48.606;9.630;2023-05-07T09:41:17;9.47;;;4.27;;
19495;SDS011;9888;48.606;9.630;2023-05-07T09:43:45;8.30;;;4.10;;
19495;SDS011;9888;48.606;9.630;2023-05-07T09:46:20;11.00;;;4.87;;
19495;SDS011;9888;48.606;9.630;2023-05-07T09:48:56;8.97;;;4.40;;
19495;SDS011;9888;48.606;9.630;2023-05-07T09:51:33;10.07;;;5.33;;
19495;SDS011;9888;48.606;9.630;2023-05-07T09:54:07;10.60;;;5.07;;
19495;SDS011;9888;48.606;9.630;2023-05-07T09:56:35;9.77;;;5.73;;
19495;SDS011;9888;48.606;9.630;2023-05-07T09:59:07;10.30;;;5.03;;
19495;SDS011;9888;48.606;9.630;2023-05-07T10:01:40;8.40;;;4.20;;
19495;SDS011;9888;48.606;9.630;2023-05-07T10:04:11;8.97;;;4.60;;
19495;SDS011;9888;48.606;9.630;2023-05-07T10:06:41;9.00;;;4.53;;
19495;SDS011;9888;48.606;9.630;2023-05-07T10:09:10;9.43;;;4.70;;
19495;SDS011;9888;48.606;9.630;2023-05-07T10:11:39;9.00;;;4.17;;
19495;SDS011;9888;48.606;9.630;2023-05-07T10:14:08;10.03;;;4.93;;
19495;SDS011;9888;48.606;9.630;2023-05-07T10:16:38;10.60;;;5.30;;
19495;SDS011;9888;48.606;9.630;2023-05-07T10:19:08;8.73;;;5.10;;
19495;SDS011;9888;48.606;9.630;2023-05-07T10:21:48;10.57;;;5.50;;
19495;SDS011;9888;48.606;9.630;2023-05-07T10:24:28;9.17;;;4.60;;
19495;SDS011;9888;48.606;9.630;2023-05-07T10:27:01;9.30;;;5.10;;
19495;SDS011;9888;48.606;9.630;2023-05-07T10:30:07;9.47;;;4.93;;
19495;SDS011;9888;48.606;9.630;2023-05-07T10:35:08;8.80;;;4.40;;
19495;SDS011;9888;48.606;9.630;2023-05-07T10:37:40;9.40;;;4.87;;
19495;SDS011;9888;48.606;9.630;2023-05-07T10:40:08;9.70;;;4.30;;
19495;SDS011;9888;48.606;9.630;2023-05-07T10:42:54;10.43;;;4.97;;
19495;SDS011;9888;48.606;9.630;2023-05-07T10:45:25;10.27;;;5.20;;
19495;SDS011;9888;48.606;9.630;2023-05-07T10:48:14;9.43;;;4.67;;
19495;SDS011;9888;48.606;9.630;2023-05-07T10:50:45;8.60;;;4.87;;
19495;SDS011;9888;48.606;9.630;2023-05-07T10:55:50;9.60;;;4.07;;
19495;SDS011;9888;48.606;9.630;2023-05-07T10:58:38;8.60;;;4.30;;
19495;SDS011;9888;48.606;9.630;2023-05-07T11:04:14;9.30;;;4.23;;
19495;SDS011;9888;48.606;9.630;2023-05-07T11:07:08;8.83;;;4.40;;
19495;SDS011;9888;48.606;9.630;2023-05-07T11:15:09;11.37;;;4.60;;
19495;SDS011;9888;48.606;9.630;2023-05-07T11:17:57;8.77;;;4.50;;
19495;SDS011;9888;48.606;9.630;2023-05-07T11:26:06;9.63;;;4.63;;
19495;SDS011;9888;48.606;9.630;2023-05-07T11:28:39;11.50;;;5.27;;
19495;SDS011;9888;48.606;9.630;2023-05-07T11:31:07;9.40;;;4.10;;
19495;SDS011;9888;48.606;9.630;2023-05-07T11:33:37;9.63;;;4.73;;
19495;SDS011;9888;48.606;9.630;2023-05-07T11:36:11;9.47;;;4.47;;
19495;SDS011;9888;48.606;9.630;2023-05-07T11:38:39;12.90;;;4.37;;
19495;SDS011;9888;48.606;9.630;2023-05-07T11:41:09;8.37;;;4.00;;
19495;SDS011;9888;48.606;9.630;2023-05-07T11:43:53;7.87;;;3.33;;
19495;SDS011;9888;48.606;9.630;2023-05-07T11:46:28;8.67;;;4.17;;
19495;SDS011;9888;48.606;9.630;2023-05-07T11:48:58;9.17;;;4.20;;
19495;SDS011;9888;48.606;9.630;2023-05-07T11:51:26;9.50;;;4.00;;
19495;SDS011;9888;48.606;9.630;2023-05-07T11:53:59;9.80;;;4.10;;
19495;SDS011;9888;48.606;9.630;2023-05-07T11:56:34;11.00;;;4.20;;
19495;SDS011;9888;48.606;9.630;2023-05-07T11:59:03;15.17;;;4.33;;
19495;SDS011;9888;48.606;9.630;2023-05-07T12:01:34;11.20;;;4.57;;
19495;SDS011;9888;48.606;9.630;2023-05-07T12:04:04;8.80;;;4.10;;
19495;SDS011;9888;48.606;9.630;2023-05-07T12:06:35;9.00;;;3.93;;
19495;SDS011;9888;48.606;9.630;2023-05-07T12:09:04;12.00;;;4.40;;
19495;SDS011;9888;48.606;9.630;2023-05-07T12:11:54;8.63;;;4.27;;
19495;SDS011;9888;48.606;9.630;2023-05-07T12:14:54;9.70;;;4.60;;
19495;SDS011;9888;48.606;9.630;2023-05-07T12:17:48;9.33;;;4.53;;
19495;SDS011;9888;48.606;9.630;2023-05-07T12:20:18;8.90;;;4.80;;
19495;SDS011;9888;48.606;9.630;2023-05-07T12:22:47;9.40;;;5.07;;
19495;SDS011;9888;48.606;9.630;2023-05-07T12:25:19;9.97;;;5.23;;
19495;SDS011;9888;48.606;9.630;2023-05-07T12:27:51;9.20;;;4.63;;
19495;SDS011;9888;48.606;9.630;2023-05-07T12:30:19;12.83;;;5.13;;
19495;SDS011;9888;48.606;9.630;2023-05-07T12:32:47;9.27;;;4.57;;
19495;SDS011;9888;48.606;9.630;2023-05-07T12:35:31;8.73;;;4.43;;
19495;SDS011;9888;48.606;9.630;2023-05-07T12:38:02;11.37;;;5.83;;
19495;SDS011;9888;48.606;9.630;2023-05-07T12:40:37;9.60;;;5.33;;
19495;SDS011;9888;48.606;9.630;2023-05-07T12:43:06;9.97;;;5.57;;
19495;SDS011;9888;48.606;9.630;2023-05-07T12:45:37;11.13;;;6.30;;
19495;SDS011;9888;48.606;9.630;2023-05-07T12:48:09;10.73;;;5.47;;
19495;SDS011;9888;48.606;9.630;2023-05-07T12:50:38;8.20;;;4.40;;
19495;SDS011;9888;48.606;9.630;2023-05-07T12:53:06;11.50;;;6.10;;
19495;SDS011;9888;48.606;9.630;2023-05-07T12:55:41;8.70;;;5.23;;
19495;SDS011;9888;48.606;9.630;2023-05-07T12:58:20;9.07;;;4.80;;
19495;SDS011;9888;48.606;9.630;2023-05-07T13:00:51;10.27;;;4.40;;
19495;SDS011;9888;48.606;9.630;2023-05-07T13:03:30;13.40;;;5.77;;
19495;SDS011;9888;48.606;9.630;2023-05-07T13:06:01;12.23;;;5.20;;
19495;SDS011;9888;48.606;9.630;2023-05-07T13:08:37;10.77;;;5.57;;
19495;SDS011;9888;48.606;9.630;2023-05-07T13:11:15;11.30;;;6.03;;
19495;SDS011;9888;48.606;9.630;2023-05-07T13:13:50;13.70;;;6.10;;
19495;SDS011;9888;48.606;9.630;2023-05-07T13:16:24;10.83;;;6.30;;
19495;SDS011;9888;48.606;9.630;2023-05-07T13:18:56;12.20;;;6.27;;
19495;SDS011;9888;48.606;9.630;2023-05-07T13:21:26;11.07;;;6.40;;
19495;SDS011;9888;48.606;9.630;2023-05-07T13:23:53;11.53;;;6.23;;
19495;SDS011;9888;48.606;9.630;2023-05-07T13:26:21;11.33;;;6.43;;
19495;SDS011;9888;48.606;9.630;2023-05-07T13:28:49;10.70;;;6.27;;
19495;SDS011;9888;48.606;9.630;2023-05-07T13:31:17;10.73;;;6.27;;
19495;SDS011;9888;48.606;9.630;2023-05-07T13:33:47;11.10;;;6.00;;
19495;SDS011;9888;48.606;9.630;2023-05-07T13:36:17;14.13;;;6.30;;
19495;SDS011;9888;48.606;9.630;2023-05-07T13:38:45;10.30;;;5.93;;
19495;SDS011;9888;48.606;9.630;2023-05-07T13:41:16;11.70;;;6.23;;
19495;SDS011;9888;48.606;9.630;2023-05-07T13:43:43;11.13;;;6.30;;
19495;SDS011;9888;48.606;9.630;2023-05-07T13:46:11;10.60;;;6.10;;
19495;SDS011;9888;48.606;9.630;2023-05-07T13:48:42;12.10;;;5.80;;
19495;SDS011;9888;48.606;9.630;2023-05-07T13:51:09;10.83;;;6.33;;
19495;SDS011;9888;48.606;9.630;2023-05-07T13:53:38;11.30;;;6.10;;
19495;SDS011;9888;48.606;9.630;2023-05-07T13:56:05;11.27;;;6.57;;
19495;SDS011;9888;48.606;9.630;2023-05-07T13:58:34;11.53;;;6.90;;
19495;SDS011;9888;48.606;9.630;2023-05-07T14:01:02;11.20;;;6.70;;
19495;SDS011;9888;48.606;9.630;2023-05-07T14:03:32;10.50;;;5.77;;
19495;SDS011;9888;48.606;9.630;2023-05-07T14:06:03;12.67;;;6.73;;
19495;SDS011;9888;48.606;9.630;2023-05-07T14:08:35;12.23;;;6.20;;
19495;SDS011;9888;48.606;9.630;2023-05-07T14:11:03;10.63;;;5.50;;
19495;SDS011;9888;48.606;9.630;2023-05-07T14:13:38;11.13;;;6.40;;
19495;SDS011;9888;48.606;9.630;2023-05-07T14:16:07;9.47;;;4.57;;
19495;SDS011;9888;48.606;9.630;2023-05-07T14:18:35;12.03;;;4.60;;
19495;SDS011;9888;48.606;9.630;2023-05-07T14:21:04;9.50;;;4.17;;
19495;SDS011;9888;48.606;9.630;2023-05-07T14:23:39;10.13;;;4.03;;
19495;SDS011;9888;48.606;9.630;2023-05-07T14:26:11;9.43;;;3.47;;
19495;SDS011;9888;48.606;9.630;2023-05-07T14:28:40;9.90;;;3.93;;
19495;SDS011;9888;48.606;9.630;2023-05-07T14:31:13;9.23;;;3.10;;
19495;SDS011;9888;48.606;9.630;2023-05-07T14:33:43;9.47;;;3.60;;
19495;SDS011;9888;48.606;9.630;2023-05-07T14:36:13;7.97;;;3.60;;
19495;SDS011;9888;48.606;9.630;2023-05-07T14:38:43;8.20;;;3.63;;
19495;SDS011;9888;48.606;9.630;2023-05-07T14:41:11;9.20;;;4.00;;
19495;SDS011;9888;48.606;9.630;2023-05-07T14:43:41;8.67;;;3.63;;
19495;SDS011;9888;48.606;9.630;2023-05-07T14:46:18;10.47;;;4.07;;
19495;SDS011;9888;48.606;9.630;2023-05-07T14:48:47;11.60;;;3.70;;
19495;SDS011;9888;48.606;9.630;2023-05-07T14:51:17;10.53;;;3.50;;
19495;SDS011;9888;48.606;9.630;2023-05-07T14:53:45;8.57;;;3.57;;
19495;SDS011;9888;48.606;9.630;2023-05-07T14:56:12;8.97;;;4.10;;
19495;SDS011;9888;48.606;9.630;2023-05-07T14:58:41;9.17;;;4.10;;
19495;SDS011;9888;48.606;9.630;2023-05-07T15:01:09;9.70;;;3.83;;
19495;SDS011;9888;48.606;9.630;2023-05-07T15:03:42;10.80;;;3.83;;
19495;SDS011;9888;48.606;9.630;2023-05-07T15:06:14;7.47;;;3.20;;
19495;SDS011;9888;48.606;9.630;2023-05-07T15:08:41;9.00;;;3.70;;
19495;SDS011;9888;48.606;9.630;2023-05-07T15:11:09;9.80;;;3.90;;
19495;SDS011;9888;48.606;9.630;2023-05-07T15:13:37;10.93;;;4.40;;
19495;SDS011;9888;48.606;9.630;2023-05-07T15:16:05;7.93;;;4.00;;
19495;SDS011;9888;48.606;9.630;2023-05-07T15:18:34;8.40;;;3.93;;
19495;SDS011;9888;48.606;9.630;2023-05-07T15:21:02;9.90;;;4.50;;
19495;SDS011;9888;48.606;9.630;2023-05-07T15:23:31;11.60;;;4.80;;
19495;SDS011;9888;48.606;9.630;2023-05-07T15:25:59;13.87;;;4.50;;
19495;SDS011;9888;48.606;9.630;2023-05-07T15:28:31;9.63;;;4.63;;